Asbury, Illinois
Current Conditions -  °F | °C
As of 4:15 AM on Saturday 22 Nov 2014 (Local Time) from KCUL Reporting Station
Overcast Overcast  
Wind Chill: 39°   Ceiling: 9000
Heat Index: 43°   Visibility: 10mi
Dew Point: 36°   Wind: 6mph
Humidity: 76%   Direction: 150°SSE
Pressure: 30.23"   Gusts: NA
Location:  37.8866°N, 88.266°W
Report Text: KCUL 221015Z AUTO 15005KT 10SM SCT070 OVC090 06/02 A3023 RMK AO2 T00600020
Loading
Personal Weather Stations






























Interactive Weather Map New forecast layout! Learn more

10-Day Weather Forecast

Advertisements
Track Severe Weather on mobile